createdAt,value
2023-03-21T00:00:31.791Z,74.47
2023-03-21T00:01:33.549Z,74.35
2023-03-21T00:02:35.280Z,74.32
2023-03-21T00:03:38.102Z,74.24
2023-03-21T00:04:50.960Z,74.35
2023-03-21T00:05:54.193Z,74.40
2023-03-21T00:06:55.984Z,74.36
2023-03-21T00:07:57.539Z,74.22
2023-03-21T00:08:59.110Z,74.20
2023-03-21T00:10:12.424Z,74.22
2023-03-21T00:11:16.920Z,74.15
2023-03-21T00:12:21.130Z,74.07
2023-03-21T00:13:22.844Z,74.19
2023-03-21T00:14:26.146Z,74.22
2023-03-21T00:15:39.298Z,74.25
2023-03-21T00:16:45.878Z,74.31
2023-03-21T00:17:50.751Z,74.66
2023-03-21T00:18:53.656Z,74.77
2023-03-21T00:19:55.234Z,74.89
2023-03-21T00:21:25.695Z,74.98
2023-03-21T00:22:22.052Z,75.01
2023-03-21T00:23:23.655Z,75.13
2023-03-21T00:24:25.557Z,75.36
2023-03-21T00:25:27.440Z,75.28
2023-03-21T00:26:29.098Z,75.34
2023-03-21T00:27:50.030Z,75.42
2023-03-21T00:28:52.377Z,75.47
2023-03-21T00:29:54.041Z,75.56
2023-03-21T00:30:59.532Z,75.71
2023-03-21T00:32:01.142Z,75.75
2023-03-21T00:33:11.985Z,75.96
2023-03-21T00:34:22.628Z,75.94
2023-03-21T00:35:58.003Z,76.14
2023-03-21T00:36:55.066Z,76.17
2023-03-21T00:37:56.735Z,76.13
2023-03-21T00:38:58.418Z,76.19
2023-03-21T00:40:00.070Z,76.37
2023-03-21T00:41:18.784Z,76.38
2023-03-21T00:42:25.130Z,76.81
2023-03-21T00:43:30.102Z,76.89
2023-03-21T00:44:37.025Z,77.20
2023-03-21T00:45:39.112Z,77.09
2023-03-21T00:46:49.085Z,77.25
2023-03-21T00:47:56.435Z,77.46
2023-03-21T00:48:58.138Z,77.79
2023-03-21T00:49:59.759Z,77.92
2023-03-21T00:51:01.409Z,77.89
2023-03-21T00:52:15.789Z,77.83
2023-03-21T00:53:20.095Z,78.01
2023-03-21T00:54:21.837Z,78.10
2023-03-21T00:55:23.463Z,78.21
2023-03-21T00:56:25.049Z,78.23
2023-03-21T00:57:37.887Z,78.30
2023-03-21T00:58:40.504Z,78.22
2023-03-21T00:59:42.083Z,78.19
2023-03-21T01:00:43.862Z,78.34
2023-03-21T01:01:46.617Z,78.36
2023-03-21T01:03:08.551Z,78.18
2023-03-21T01:04:16.872Z,78.39
2023-03-21T01:05:38.960Z,78.43
2023-03-21T01:06:41.629Z,78.35
2023-03-21T01:07:43.250Z,78.45
2023-03-21T01:08:52.343Z,78.42
2023-03-21T01:09:54.457Z,78.35
2023-03-21T01:10:56.296Z,78.62
2023-03-21T01:11:58.056Z,78.55
2023-03-21T01:12:59.750Z,78.63
2023-03-21T01:14:18.579Z,78.82
2023-03-21T01:15:22.943Z,78.87
2023-03-21T01:16:25.030Z,78.77
2023-03-21T01:17:26.719Z,78.85
2023-03-21T01:18:29.817Z,78.89
2023-03-21T01:19:44.791Z,78.79
2023-03-21T01:20:52.228Z,78.92
2023-03-21T01:21:54.320Z,78.84
2023-03-21T01:22:55.909Z,78.70
2023-03-21T01:23:57.638Z,78.84
2023-03-21T01:25:12.197Z,78.89
2023-03-21T01:26:20.914Z,78.71
2023-03-21T01:27:22.588Z,78.86
2023-03-21T01:28:26.463Z,79.10
2023-03-21T01:29:28.098Z,78.91
2023-03-21T01:30:33.964Z,79.11
2023-03-21T01:31:38.680Z,79.05
2023-03-21T01:32:40.480Z,78.90
2023-03-21T01:33:42.196Z,78.81
2023-03-21T01:34:43.781Z,78.73
2023-03-21T01:35:53.475Z,78.65
2023-03-21T01:37:01.988Z,78.67
2023-03-21T01:38:03.624Z,78.57
2023-03-21T01:39:06.692Z,78.49
2023-03-21T01:40:12.790Z,78.43
2023-03-21T01:41:36.645Z,78.48
2023-03-21T01:42:41.934Z,78.50
2023-03-21T01:43:43.570Z,78.45
2023-03-21T01:44:55.370Z,78.40
2023-03-21T01:46:00.031Z,78.45
2023-03-21T01:47:16.922Z,78.44
2023-03-21T01:48:19.268Z,78.48
2023-03-21T01:49:21.680Z,78.39
2023-03-21T01:50:23.233Z,78.34
2023-03-21T01:51:25.179Z,78.26
2023-03-21T01:52:37.063Z,78.23
2023-03-21T01:53:39.825Z,78.21
2023-03-21T01:54:41.608Z,78.12
2023-03-21T01:55:43.212Z,78.16
2023-03-21T01:56:47.090Z,78.10
2023-03-21T01:58:04.882Z,78.17
2023-03-21T01:59:13.484Z,78.16
2023-03-21T02:00:15.520Z,78.06
2023-03-21T02:01:17.159Z,77.98
2023-03-21T02:03:11.618Z,78.02
2023-03-21T02:04:14.649Z,78.14
2023-03-21T02:05:20.425Z,78.20
2023-03-21T02:06:30.330Z,77.99
2023-03-21T02:07:35.826Z,77.92
2023-03-21T02:08:39.936Z,78.39
2023-03-21T02:09:42.513Z,79.04
2023-03-21T02:10:44.306Z,78.73
2023-03-21T02:11:46.645Z,78.42
2023-03-21T02:12:48.230Z,79.00
2023-03-21T02:13:53.577Z,78.94
2023-03-21T02:14:57.506Z,78.35
2023-03-21T02:16:29.857Z,79.41
2023-03-21T02:17:43.199Z,79.23
2023-03-21T02:19:00.025Z,79.42
2023-03-21T02:20:51.205Z,79.35
2023-03-21T02:22:34.467Z,79.19
2023-03-21T02:23:54.749Z,78.77
2023-03-21T02:25:13.379Z,79.41
2023-03-21T02:26:33.378Z,79.37
2023-03-21T02:27:59.936Z,78.53
2023-03-21T02:29:08.453Z,78.16
2023-03-21T02:30:45.626Z,78.35
2023-03-21T02:32:00.853Z,78.37
2023-03-21T02:33:29.158Z,78.88
2023-03-21T02:34:32.074Z,78.86
2023-03-21T02:35:58.620Z,79.61
2023-03-21T02:37:23.591Z,79.39
2023-03-21T02:38:43.019Z,79.40
2023-03-21T02:40:20.886Z,79.38
2023-03-21T02:41:38.244Z,80.13
2023-03-21T02:42:59.502Z,79.60
2023-03-21T02:44:14.020Z,79.82
2023-03-21T02:45:17.126Z,80.05
2023-03-21T02:46:19.426Z,80.23
2023-03-21T02:47:34.962Z,80.07
2023-03-21T02:48:50.283Z,80.24
2023-03-21T02:49:58.044Z,79.97
2023-03-21T02:51:00.420Z,79.86
2023-03-21T02:52:12.249Z,79.79
2023-03-21T02:53:17.971Z,80.33
2023-03-21T02:54:35.009Z,80.47
2023-03-21T02:55:43.175Z,80.75
2023-03-21T02:56:45.702Z,80.86
2023-03-21T02:57:47.403Z,80.76
2023-03-21T02:58:49.047Z,80.51
2023-03-21T02:59:55.514Z,80.44
2023-03-21T03:01:00.111Z,80.36
2023-03-21T03:02:01.970Z,80.45
2023-03-21T03:03:09.976Z,80.80
2023-03-21T03:04:24.419Z,80.92
2023-03-21T03:05:31.085Z,80.79
2023-03-21T03:06:42.147Z,81.23
2023-03-21T03:07:47.060Z,81.30
2023-03-21T03:09:33.237Z,81.35
2023-03-21T03:10:56.498Z,81.28
2023-03-21T03:12:11.935Z,81.30
2023-03-21T03:13:32.342Z,80.87
2023-03-21T03:15:03.087Z,80.79
2023-03-21T03:16:18.228Z,80.71
2023-03-21T03:17:30.688Z,80.37
2023-03-21T03:18:55.617Z,80.58
2023-03-21T03:20:17.168Z,80.43
2023-03-21T03:21:29.672Z,80.27
2023-03-21T03:23:00.543Z,80.01
2023-03-21T03:24:05.117Z,80.00
2023-03-21T03:25:21.321Z,80.76
2023-03-21T03:26:38.884Z,80.97
2023-03-21T03:27:42.301Z,80.75
2023-03-21T03:28:46.837Z,81.17
2023-03-21T03:29:48.766Z,81.37
2023-03-21T03:31:07.152Z,81.65
2023-03-21T03:32:18.177Z,81.65
2023-03-21T03:33:23.587Z,81.55
2023-03-21T03:34:28.170Z,81.31
2023-03-21T03:35:29.851Z,81.38
2023-03-21T03:36:36.955Z,81.41
2023-03-21T03:37:38.599Z,81.53
2023-03-21T03:38:40.229Z,81.26
2023-03-21T03:39:47.288Z,81.35
2023-03-21T03:40:50.383Z,81.08
2023-03-21T03:42:10.098Z,81.11
2023-03-21T03:43:20.530Z,81.12
2023-03-21T03:44:22.191Z,81.16
2023-03-21T03:45:27.126Z,81.22
2023-03-21T03:46:53.070Z,81.13
2023-03-21T03:47:59.935Z,81.01
2023-03-21T03:49:04.851Z,81.30
2023-03-21T03:50:13.181Z,81.41
2023-03-21T03:51:36.445Z,81.62
2023-03-21T03:52:56.204Z,81.83
2023-03-21T03:54:02.048Z,82.51
2023-03-21T03:55:03.998Z,82.90
2023-03-21T03:56:07.092Z,82.75
2023-03-21T03:57:08.795Z,81.88
2023-03-21T03:58:21.653Z,82.84
2023-03-21T03:59:25.256Z,83.09
2023-03-21T04:00:27.653Z,83.10
2023-03-21T04:01:29.680Z,82.77
2023-03-21T04:02:32.259Z,82.51
2023-03-21T04:03:48.068Z,82.28
2023-03-21T04:04:53.439Z,81.97
2023-03-21T04:05:55.056Z,80.96
2023-03-21T04:06:58.075Z,81.07
2023-03-21T04:07:59.802Z,80.91
2023-03-21T04:09:05.480Z,81.20
2023-03-21T04:10:12.279Z,81.09
2023-03-21T04:11:15.262Z,81.09
2023-03-21T04:12:16.849Z,81.82
2023-03-21T04:13:18.498Z,82.17
2023-03-21T04:14:20.513Z,81.88
2023-03-21T04:15:22.265Z,81.83
2023-03-21T04:16:24.315Z,82.25
2023-03-21T04:17:25.936Z,82.38
2023-03-21T04:18:27.934Z,81.72
2023-03-21T04:19:29.900Z,81.81
2023-03-21T04:20:43.492Z,82.06
2023-03-21T04:21:46.447Z,82.70
2023-03-21T04:22:48.725Z,82.76
2023-03-21T04:23:50.509Z,82.40
2023-03-21T04:24:53.390Z,82.23
2023-03-21T04:25:57.180Z,82.83
2023-03-21T04:26:58.953Z,82.77
2023-03-21T04:28:00.552Z,82.90
2023-03-21T04:29:02.957Z,82.69
2023-03-21T04:30:06.158Z,82.69
2023-03-21T04:31:22.728Z,82.51
2023-03-21T04:32:27.481Z,82.33
2023-03-21T04:33:29.070Z,82.15
2023-03-21T04:34:30.670Z,82.11
2023-03-21T04:35:32.337Z,82.01
2023-03-21T04:36:39.205Z,81.78
2023-03-21T04:37:41.607Z,81.58
2023-03-21T04:38:43.255Z,81.59
2023-03-21T04:39:46.518Z,81.52
2023-03-21T04:40:48.167Z,81.36
2023-03-21T04:41:50.086Z,81.50
2023-03-21T04:42:51.851Z,81.26
2023-03-21T04:43:54.399Z,81.28
2023-03-21T04:44:56.200Z,81.23
2023-03-21T04:45:58.076Z,81.07
2023-03-21T04:46:59.675Z,80.94
2023-03-21T04:48:01.363Z,80.69
2023-03-21T04:49:03.052Z,80.53
2023-03-21T04:50:05.184Z,80.35
2023-03-21T04:51:06.941Z,80.28
2023-03-21T04:52:08.556Z,80.18
2023-03-21T04:53:10.245Z,79.96
2023-03-21T04:55:16.058Z,79.76
2023-03-21T04:56:18.028Z,79.60
2023-03-21T04:57:19.667Z,79.38
2023-03-21T04:58:21.949Z,79.24
2023-03-21T04:59:23.547Z,79.14
2023-03-21T05:00:25.790Z,79.01
2023-03-21T05:01:30.776Z,78.86
2023-03-21T05:02:32.599Z,78.80
2023-03-21T05:03:34.593Z,78.70
2023-03-21T05:04:36.285Z,78.51
2023-03-21T05:05:38.625Z,78.19
2023-03-21T05:06:42.536Z,78.12
2023-03-21T05:07:44.188Z,77.95
2023-03-21T05:08:46.005Z,78.08
2023-03-21T05:09:47.596Z,78.18
2023-03-21T05:10:49.244Z,78.21
2023-03-21T05:11:50.933Z,78.11
2023-03-21T05:12:52.557Z,78.17
2023-03-21T05:13:54.220Z,77.94
2023-03-21T05:14:55.803Z,77.78
2023-03-21T05:15:57.444Z,77.34
2023-03-21T05:17:01.715Z,77.11
2023-03-21T05:18:11.519Z,77.13
2023-03-21T05:19:14.072Z,77.25
2023-03-21T05:20:17.375Z,77.27
2023-03-21T05:21:19.253Z,76.96
2023-03-21T05:22:20.861Z,76.63
2023-03-21T05:23:23.024Z,76.19
2023-03-21T05:24:24.619Z,76.03
2023-03-21T05:25:34.680Z,76.31
2023-03-21T05:26:36.294Z,76.21
2023-03-21T05:27:37.895Z,76.28
2023-03-21T05:28:40.147Z,76.14
2023-03-21T05:29:41.796Z,76.20
2023-03-21T05:30:43.546Z,76.12
2023-03-21T05:31:45.838Z,76.22
2023-03-21T05:32:47.546Z,76.21
2023-03-21T05:33:49.248Z,76.15
2023-03-21T05:34:50.938Z,75.95
2023-03-21T05:35:52.596Z,75.70
2023-03-21T05:36:54.519Z,75.42
2023-03-21T05:37:56.226Z,75.52
2023-03-21T05:38:57.814Z,75.34
2023-03-21T05:39:59.421Z,75.44
2023-03-21T05:41:01.055Z,75.17
2023-03-21T05:42:02.650Z,75.29
2023-03-21T05:43:04.314Z,74.96
2023-03-21T05:44:05.963Z,74.44
2023-03-21T05:45:07.801Z,74.06
2023-03-21T05:46:09.700Z,73.59
2023-03-21T05:47:13.015Z,73.23
2023-03-21T05:48:14.732Z,72.56
2023-03-21T05:49:16.448Z,71.92
2023-03-21T05:50:18.114Z,71.99
2023-03-21T05:51:19.732Z,71.22
2023-03-21T05:52:21.386Z,70.68
2023-03-21T05:53:23.378Z,69.76
2023-03-21T05:54:25.013Z,69.52
2023-03-21T05:55:26.678Z,69.85
2023-03-21T05:56:28.295Z,69.61
2023-03-21T05:57:30.040Z,69.87
2023-03-21T05:58:31.687Z,70.25
2023-03-21T05:59:33.508Z,70.33
2023-03-21T06:00:35.171Z,70.68
2023-03-21T06:01:36.840Z,70.74
2023-03-21T06:02:39.998Z,71.60
2023-03-21T06:03:41.999Z,72.52
2023-03-21T06:04:43.944Z,72.28
2023-03-21T06:05:45.590Z,71.27
2023-03-21T06:06:47.418Z,71.20
2023-03-21T06:07:49.085Z,71.01
2023-03-21T06:08:50.681Z,70.71
2023-03-21T06:09:52.307Z,70.54
2023-03-21T06:10:55.638Z,70.99
2023-03-21T06:11:57.558Z,71.21
2023-03-21T06:12:59.204Z,71.10
2023-03-21T06:14:00.888Z,71.24
2023-03-21T06:15:05.518Z,71.14
2023-03-21T06:16:07.501Z,70.97
2023-03-21T06:17:09.178Z,71.14
2023-03-21T06:18:10.850Z,71.19
2023-03-21T06:19:12.526Z,70.67
2023-03-21T06:20:14.257Z,71.30
2023-03-21T06:21:16.363Z,71.19
2023-03-21T06:22:17.980Z,70.85
2023-03-21T06:23:19.623Z,70.85
2023-03-21T06:24:21.743Z,70.95
2023-03-21T06:25:23.465Z,70.26
2023-03-21T06:26:25.093Z,69.77
2023-03-21T06:27:26.697Z,69.90
2023-03-21T06:28:28.371Z,69.71
2023-03-21T06:29:30.024Z,69.86
2023-03-21T06:30:31.625Z,69.55
2023-03-21T06:31:33.335Z,69.70
2023-03-21T06:32:35.124Z,70.19
2023-03-21T06:33:36.726Z,69.95
2023-03-21T06:34:39.503Z,69.47
2023-03-21T06:35:41.222Z,69.26
2023-03-21T06:36:44.786Z,68.67
2023-03-21T06:37:49.427Z,68.67
2023-03-21T06:38:52.061Z,68.68
2023-03-21T06:39:55.460Z,67.78
2023-03-21T06:40:57.659Z,67.89
2023-03-21T06:41:59.508Z,67.20
2023-03-21T06:43:01.520Z,66.99
2023-03-21T06:44:03.267Z,66.60
2023-03-21T06:45:05.504Z,66.80
2023-03-21T06:46:07.137Z,66.38
2023-03-21T06:47:08.839Z,66.56
2023-03-21T06:48:10.658Z,66.05
2023-03-21T06:49:12.409Z,66.40
2023-03-21T06:50:14.106Z,66.00
2023-03-21T06:51:15.830Z,65.20
2023-03-21T06:52:17.428Z,65.28
2023-03-21T06:53:20.755Z,66.11
2023-03-21T06:54:22.468Z,65.97
2023-03-21T06:55:27.365Z,65.44
2023-03-21T06:56:28.952Z,65.32
2023-03-21T06:57:31.070Z,65.40
2023-03-21T06:58:32.723Z,65.05
2023-03-21T06:59:34.820Z,65.35
2023-03-21T07:00:36.467Z,65.55
2023-03-21T07:01:38.665Z,65.49
2023-03-21T07:02:41.006Z,65.33
2023-03-21T07:03:42.758Z,65.09
2023-03-21T07:04:44.441Z,64.29
2023-03-21T07:05:46.584Z,64.36
2023-03-21T07:06:48.186Z,64.82
2023-03-21T07:07:49.912Z,64.48
2023-03-21T07:08:51.550Z,64.83
2023-03-21T07:09:53.136Z,64.57
2023-03-21T07:10:55.869Z,64.75
2023-03-21T07:11:58.064Z,65.59
2023-03-21T07:13:00.059Z,65.21
2023-03-21T07:14:01.738Z,64.61
2023-03-21T07:15:04.448Z,64.76
2023-03-21T07:16:06.656Z,64.41
2023-03-21T07:17:08.305Z,63.95
2023-03-21T07:18:10.476Z,64.45
2023-03-21T07:19:12.105Z,63.30
2023-03-21T07:20:14.236Z,63.24
2023-03-21T07:21:15.862Z,63.41
2023-03-21T07:22:17.461Z,62.50
2023-03-21T07:23:20.215Z,62.67
2023-03-21T07:24:21.873Z,62.85
2023-03-21T07:25:23.671Z,62.93
2023-03-21T07:26:25.285Z,62.80
2023-03-21T07:27:26.954Z,62.14
2023-03-21T07:28:28.677Z,62.62
2023-03-21T07:29:30.337Z,62.94
2023-03-21T07:30:31.932Z,63.09
2023-03-21T07:31:33.551Z,63.28
2023-03-21T07:32:35.440Z,63.72
2023-03-21T07:33:37.117Z,63.63
2023-03-21T07:34:38.859Z,62.84
2023-03-21T07:35:41.131Z,63.18
2023-03-21T07:36:43.199Z,62.55
2023-03-21T07:37:44.821Z,62.58
2023-03-21T07:38:46.546Z,62.97
2023-03-21T07:39:48.203Z,62.82
2023-03-21T07:40:49.955Z,62.15
2023-03-21T07:41:51.723Z,61.83
2023-03-21T07:42:53.363Z,60.82
2023-03-21T07:43:55.577Z,60.60
2023-03-21T07:44:57.247Z,60.61
2023-03-21T07:45:59.197Z,61.05
2023-03-21T07:47:00.996Z,61.27
2023-03-21T07:48:02.608Z,60.85
2023-03-21T07:49:06.094Z,60.44
2023-03-21T07:50:08.192Z,60.71
2023-03-21T07:51:09.796Z,60.22
2023-03-21T07:52:11.497Z,59.73
2023-03-21T07:53:13.097Z,59.48
2023-03-21T07:54:14.845Z,60.18
2023-03-21T07:55:17.392Z,59.86
2023-03-21T07:56:19.064Z,60.25
2023-03-21T07:57:20.809Z,59.74
2023-03-21T07:58:25.791Z,59.49
2023-03-21T07:59:27.529Z,59.73
2023-03-21T08:00:29.273Z,60.00
2023-03-21T08:01:30.995Z,60.27
2023-03-21T08:02:32.948Z,59.05
2023-03-21T08:03:34.605Z,59.47
2023-03-21T08:04:36.276Z,59.33
2023-03-21T08:05:38.506Z,59.85
2023-03-21T08:06:40.408Z,58.97
2023-03-21T08:07:42.003Z,58.97
2023-03-21T08:08:43.678Z,59.17
2023-03-21T08:09:45.336Z,58.93
2023-03-21T08:10:47.109Z,59.56
2023-03-21T08:11:48.737Z,58.92
2023-03-21T08:12:50.471Z,58.78
2023-03-21T08:13:52.135Z,59.56
2023-03-21T08:14:53.743Z,59.49
2023-03-21T08:15:55.383Z,60.21
2023-03-21T08:16:57.021Z,59.87
2023-03-21T08:17:59.665Z,59.17
2023-03-21T08:19:01.331Z,59.62
2023-03-21T08:20:04.816Z,59.32
2023-03-21T08:21:09.361Z,59.46
2023-03-21T08:22:11.300Z,59.96
2023-03-21T08:23:13.939Z,59.07
2023-03-21T08:24:16.157Z,58.88
2023-03-21T08:25:19.490Z,58.23
2023-03-21T08:26:21.508Z,58.33
2023-03-21T08:27:23.168Z,58.58
2023-03-21T08:28:25.007Z,58.32
2023-03-21T08:29:27.171Z,58.49
2023-03-21T08:30:28.866Z,57.91
2023-03-21T08:31:30.467Z,58.43
2023-03-21T08:32:32.995Z,58.85
2023-03-21T08:33:34.620Z,58.41
2023-03-21T08:34:36.703Z,58.54
2023-03-21T08:35:40.905Z,57.51
2023-03-21T08:36:42.787Z,57.65
2023-03-21T08:37:44.598Z,57.92
2023-03-21T08:38:48.548Z,58.04
2023-03-21T08:39:50.293Z,58.47
2023-03-21T08:40:52.039Z,58.84
2023-03-21T08:41:53.654Z,59.00
2023-03-21T08:42:55.409Z,59.22
2023-03-21T08:43:57.066Z,59.50
2023-03-21T08:44:58.663Z,59.78
2023-03-21T08:46:00.510Z,59.55
2023-03-21T08:47:02.264Z,60.45
2023-03-21T08:48:04.152Z,60.81
2023-03-21T08:49:05.793Z,59.99
2023-03-21T08:50:08.328Z,59.95
2023-03-21T08:51:10.033Z,60.36
2023-03-21T08:52:12.089Z,60.47
2023-03-21T08:53:13.823Z,59.95
2023-03-21T08:54:21.952Z,60.33
2023-03-21T08:55:23.634Z,60.72
2023-03-21T08:56:25.436Z,60.48
2023-03-21T08:57:27.040Z,60.33
2023-03-21T08:58:28.681Z,60.13
2023-03-21T08:59:30.358Z,60.89
2023-03-21T09:00:32.362Z,60.85
2023-03-21T09:01:34.090Z,61.19
2023-03-21T09:02:36.104Z,60.24
2023-03-21T09:03:38.891Z,60.39
2023-03-21T09:04:40.949Z,60.07
2023-03-21T09:05:45.642Z,59.88
2023-03-21T09:06:48.875Z,59.95
2023-03-21T09:07:50.594Z,60.46
2023-03-21T09:08:53.570Z,59.61
2023-03-21T09:10:14.777Z,59.94
2023-03-21T09:11:16.983Z,59.89
2023-03-21T09:12:18.701Z,60.29
2023-03-21T09:13:20.969Z,60.69
2023-03-21T09:14:28.445Z,60.51
2023-03-21T09:15:30.510Z,60.18
2023-03-21T09:16:32.686Z,60.37
2023-03-21T09:17:34.498Z,60.30
2023-03-21T09:18:47.346Z,60.18
2023-03-21T09:19:49.772Z,60.52
2023-03-21T09:20:52.146Z,60.23
2023-03-21T09:21:54.239Z,59.60
2023-03-21T09:22:56.924Z,59.87
2023-03-21T09:24:00.040Z,59.90
2023-03-21T09:25:04.298Z,59.05
2023-03-21T09:26:06.864Z,58.94
2023-03-21T09:27:08.553Z,59.03
2023-03-21T09:28:10.709Z,58.38
2023-03-21T09:29:12.923Z,59.00
2023-03-21T09:30:16.385Z,58.89
2023-03-21T09:31:22.981Z,58.87
2023-03-21T09:32:25.271Z,59.02
2023-03-21T09:33:28.183Z,59.06
2023-03-21T09:34:29.884Z,58.53
2023-03-21T09:35:31.657Z,59.01
2023-03-21T09:36:35.208Z,59.51
2023-03-21T09:37:38.497Z,59.49
2023-03-21T09:38:43.145Z,59.86
2023-03-21T09:39:45.235Z,59.08
2023-03-21T09:41:05.273Z,58.74
2023-03-21T09:42:48.422Z,59.14
2023-03-21T09:44:08.255Z,59.70
2023-03-21T09:45:16.251Z,58.38
2023-03-21T09:46:37.604Z,58.53
2023-03-21T09:47:57.114Z,58.93
2023-03-21T09:49:07.854Z,58.53
2023-03-21T09:50:20.425Z,58.08
2023-03-21T09:51:22.220Z,59.12
2023-03-21T09:52:48.271Z,58.47
2023-03-21T09:53:50.048Z,57.24
2023-03-21T09:54:52.205Z,56.98
2023-03-21T09:55:56.661Z,57.96
2023-03-21T09:57:01.149Z,57.20
2023-03-21T09:58:07.128Z,56.85
2023-03-21T09:59:09.178Z,56.58
2023-03-21T10:00:19.348Z,55.55
2023-03-21T10:01:28.503Z,56.00
2023-03-21T10:02:38.360Z,56.69
2023-03-21T10:03:41.842Z,57.08
2023-03-21T10:04:46.573Z,57.59
2023-03-21T10:05:48.595Z,56.92
2023-03-21T10:07:10.721Z,56.98
2023-03-21T10:08:24.665Z,56.84
2023-03-21T10:09:27.303Z,56.40
2023-03-21T10:10:29.877Z,55.50
2023-03-21T10:11:32.599Z,54.93
2023-03-21T10:12:34.265Z,55.34
2023-03-21T10:13:38.852Z,55.64
2023-03-21T10:14:44.909Z,55.43
2023-03-21T10:15:46.571Z,55.15
2023-03-21T10:17:40.986Z,55.08
2023-03-21T10:18:43.093Z,55.13
2023-03-21T10:19:46.603Z,55.07
2023-03-21T10:20:48.363Z,54.02
2023-03-21T10:22:00.676Z,54.15
2023-03-21T10:23:08.363Z,54.82
2023-03-21T10:24:15.796Z,54.44
2023-03-21T10:25:19.756Z,53.92
2023-03-21T10:26:21.850Z,53.85
2023-03-21T10:27:23.478Z,53.91
2023-03-21T10:28:27.108Z,53.76
2023-03-21T10:29:32.126Z,53.14
2023-03-21T10:31:04.422Z,53.18
2023-03-21T10:32:06.278Z,53.61
2023-03-21T10:33:11.784Z,53.01
2023-03-21T10:34:17.549Z,51.74
2023-03-21T10:35:19.263Z,51.87
2023-03-21T10:36:22.840Z,51.36
2023-03-21T10:37:24.711Z,51.16
2023-03-21T10:38:26.894Z,51.13
2023-03-21T10:39:34.768Z,51.54
2023-03-21T10:40:36.391Z,51.35
2023-03-21T10:41:40.238Z,51.57
2023-03-21T10:42:42.994Z,51.82
2023-03-21T10:43:45.961Z,52.25
2023-03-21T10:44:49.436Z,50.57
2023-03-21T10:45:51.127Z,49.27
2023-03-21T10:47:03.637Z,49.84
2023-03-21T10:48:07.982Z,51.23
2023-03-21T10:49:09.778Z,51.41
2023-03-21T10:50:16.428Z,52.27
2023-03-21T10:51:20.716Z,51.93
2023-03-21T10:52:23.204Z,52.12
2023-03-21T10:53:33.403Z,52.03
2023-03-21T10:54:35.738Z,52.03
2023-03-21T10:55:41.016Z,52.62
2023-03-21T10:56:55.730Z,51.47
2023-03-21T10:58:00.333Z,51.29
2023-03-21T10:59:01.930Z,51.79
2023-03-21T11:00:14.919Z,52.40
2023-03-21T11:01:30.608Z,50.90
2023-03-21T11:02:36.059Z,50.70
2023-03-21T11:03:38.854Z,51.02
2023-03-21T11:04:40.510Z,50.56
2023-03-21T11:05:42.469Z,49.69
2023-03-21T11:06:59.728Z,50.15
2023-03-21T11:08:15.570Z,50.38
2023-03-21T11:09:20.312Z,48.74
2023-03-21T11:10:35.843Z,49.11
2023-03-21T11:11:39.146Z,48.87
2023-03-21T11:12:41.408Z,48.83
2023-03-21T11:13:43.842Z,49.18
2023-03-21T11:14:47.024Z,48.53
2023-03-21T11:15:56.847Z,48.32
2023-03-21T11:16:58.599Z,47.27
2023-03-21T11:18:00.843Z,47.49
2023-03-21T11:19:04.277Z,47.92
2023-03-21T11:20:09.056Z,47.09
2023-03-21T11:21:12.339Z,46.24
2023-03-21T11:22:14.028Z,47.09
2023-03-21T11:23:15.657Z,47.41
2023-03-21T11:24:18.161Z,48.03
2023-03-21T11:25:27.747Z,48.46
2023-03-21T11:26:36.871Z,49.91
2023-03-21T11:27:47.729Z,47.78
2023-03-21T11:28:49.332Z,47.36
2023-03-21T11:29:51.463Z,47.61
2023-03-21T11:31:00.508Z,47.85
2023-03-21T11:32:19.992Z,48.10
2023-03-21T11:33:23.531Z,48.12
2023-03-21T11:34:29.489Z,47.67
2023-03-21T11:35:36.490Z,46.80
2023-03-21T11:36:41.605Z,47.32
2023-03-21T11:37:47.886Z,46.96
2023-03-21T11:39:04.098Z,48.01
2023-03-21T11:40:22.033Z,47.23
2023-03-21T11:41:33.865Z,46.80
2023-03-21T11:42:43.397Z,46.48
2023-03-21T11:43:45.069Z,47.29
2023-03-21T11:44:47.390Z,46.09
2023-03-21T11:46:08.788Z,45.83
2023-03-21T11:47:10.988Z,46.32
2023-03-21T11:48:13.666Z,45.77
2023-03-21T11:49:15.347Z,44.97
2023-03-21T11:50:17.230Z,44.90
2023-03-21T11:51:42.918Z,44.82
2023-03-21T11:53:02.448Z,45.32
2023-03-21T11:54:15.898Z,46.19
2023-03-21T11:55:55.053Z,46.17
2023-03-21T11:57:05.496Z,46.09
2023-03-21T11:58:15.013Z,45.88
2023-03-21T11:59:42.481Z,46.17
2023-03-21T12:01:16.011Z,45.53
2023-03-21T12:02:55.106Z,45.55
2023-03-21T12:04:08.930Z,45.02
2023-03-21T12:05:21.983Z,46.06
2023-03-21T12:06:38.554Z,46.20
2023-03-21T12:08:06.476Z,46.82
2023-03-21T12:09:26.618Z,46.96
2023-03-21T12:10:51.780Z,47.05
2023-03-21T12:12:05.073Z,47.04
2023-03-21T12:13:23.525Z,47.79
2023-03-21T12:14:37.299Z,48.08
2023-03-21T12:16:24.586Z,48.80
2023-03-21T12:17:54.331Z,48.85
2023-03-21T12:19:33.558Z,49.46
2023-03-21T12:20:42.287Z,49.50
2023-03-21T12:22:23.721Z,49.54
2023-03-21T12:23:31.188Z,49.74
2023-03-21T12:24:55.972Z,49.83
2023-03-21T12:26:03.568Z,49.28
2023-03-21T12:27:31.093Z,49.25
2023-03-21T12:29:11.072Z,49.14
2023-03-21T12:30:39.988Z,49.22
2023-03-21T12:31:53.909Z,48.79
2023-03-21T12:33:14.611Z,48.97
2023-03-21T12:34:32.518Z,48.58
2023-03-21T12:36:00.498Z,48.86
2023-03-21T12:37:13.027Z,47.25
2023-03-21T12:38:24.089Z,46.96
2023-03-21T12:39:36.537Z,47.22
2023-03-21T12:41:10.025Z,46.67
2023-03-21T12:42:35.960Z,45.11
2023-03-21T12:43:59.594Z,45.94
2023-03-21T12:45:21.910Z,44.80
2023-03-21T12:46:28.498Z,45.02
2023-03-21T12:47:32.069Z,45.79
2023-03-21T12:48:52.541Z,46.44
2023-03-21T12:50:08.411Z,45.60
2023-03-21T12:51:19.780Z,45.23
2023-03-21T12:52:32.636Z,45.28
2023-03-21T12:53:55.872Z,45.68
2023-03-21T12:55:25.142Z,46.26
2023-03-21T12:56:34.271Z,46.43
2023-03-21T12:57:47.695Z,46.17
2023-03-21T12:58:57.746Z,46.76
2023-03-21T13:00:20.334Z,46.64
2023-03-21T13:01:22.240Z,46.75
2023-03-21T13:02:31.307Z,46.56
2023-03-21T13:03:40.781Z,46.71
2023-03-21T13:04:46.642Z,45.97
2023-03-21T13:05:50.821Z,46.00
2023-03-21T13:06:52.447Z,46.04
2023-03-21T13:07:58.130Z,45.32
2023-03-21T13:09:38.238Z,44.72
2023-03-21T13:10:41.199Z,45.83
2023-03-21T13:11:42.824Z,45.23
2023-03-21T13:12:52.317Z,45.18
2023-03-21T13:14:17.240Z,45.41
2023-03-21T13:15:58.098Z,46.16
2023-03-21T13:17:06.732Z,46.98
2023-03-21T13:18:16.568Z,46.57
2023-03-21T13:19:28.961Z,46.85
2023-03-21T13:20:39.869Z,46.69
2023-03-21T13:21:44.698Z,45.90
2023-03-21T13:22:46.276Z,44.63
2023-03-21T13:24:04.891Z,43.86
2023-03-21T13:25:17.605Z,44.08
2023-03-21T13:26:19.363Z,43.67
2023-03-21T13:27:29.823Z,44.08
2023-03-21T13:28:33.925Z,44.12
2023-03-21T13:29:42.649Z,44.19
2023-03-21T13:30:44.388Z,44.56
2023-03-21T13:31:52.164Z,44.83
2023-03-21T13:33:14.081Z,45.46
2023-03-21T13:34:15.714Z,45.97
2023-03-21T13:35:21.121Z,45.86
2023-03-21T13:36:24.937Z,45.75
2023-03-21T13:37:34.313Z,46.00
2023-03-21T13:38:39.998Z,46.65
2023-03-21T13:39:43.811Z,46.80
2023-03-21T13:40:51.956Z,46.65
2023-03-21T13:41:54.800Z,46.80
2023-03-21T13:42:59.894Z,46.27
2023-03-21T13:44:04.509Z,46.03
2023-03-21T13:45:09.551Z,45.50
2023-03-21T13:46:16.104Z,45.55
2023-03-21T13:47:30.863Z,45.43
2023-03-21T13:48:49.435Z,45.46
2023-03-21T13:50:19.404Z,45.07
2023-03-21T13:51:45.860Z,45.09
2023-03-21T13:53:13.709Z,45.37
2023-03-21T13:54:15.517Z,45.71
2023-03-21T13:55:19.704Z,45.17
2023-03-21T13:56:22.485Z,45.53
2023-03-21T13:57:27.234Z,46.15
2023-03-21T13:58:33.203Z,46.23
2023-03-21T13:59:44.805Z,46.33
2023-03-21T14:00:47.013Z,46.64
2023-03-21T14:02:21.179Z,46.34
2023-03-21T14:03:24.741Z,46.43
2023-03-21T14:04:32.211Z,46.47
2023-03-21T14:05:48.449Z,46.64
2023-03-21T14:06:56.578Z,46.53
2023-03-21T14:08:12.728Z,46.45
2023-03-21T14:09:38.376Z,46.37
2023-03-21T14:10:42.543Z,45.79
2023-03-21T14:11:46.715Z,45.33
2023-03-21T14:12:48.637Z,45.72
2023-03-21T14:13:51.816Z,45.63
2023-03-21T14:15:06.759Z,45.85
2023-03-21T14:16:14.203Z,46.08
2023-03-21T14:17:22.214Z,46.14
2023-03-21T14:18:51.730Z,45.65
2023-03-21T14:19:47.015Z,46.17
2023-03-21T14:20:58.465Z,46.20
2023-03-21T14:22:00.129Z,46.48
2023-03-21T14:23:04.403Z,47.06